Inglis, Florida
Current Conditions -  °F | °C
As of 2:55 PM on Friday 24 Oct 2014 (Local Time) from KCGC Reporting Station
Scattered Clouds Scattered Clouds  
Wind Chill: 25°   Ceiling: Unl
Heat Index: 26°   Visibility: 10mi
Dew Point: 12°   Wind: 8mph
Humidity: 44%   Direction: 70°ENE
Pressure: 29.95"   Gusts: NA
Location:  29.03°N, 82.67°W
Report Text: KCGC 241855Z AUTO 07007KT 10SM SCT046 25/12 A2995 RMK AO2 PWINO
Loading
Personal Weather Stations






























Interactive Weather Map
Tropical Storm Tracking
New forecast layout! Learn more

10-Day Weather Forecast

Advertisements
Track Severe Weather on mobile